DVDO2: Red Rr at US 183 bridge nr Davidson 2S

Data processed at Wed May 22 2019 23:50


All information presented herein is the property of the government of the United States of America and may be revised or deleted at any time without prior notice.
Dissemination of this information without the expressed written consent of the Public Affairs Office, Tulsa District U.S. Army Corps of Engineers is strictly prohibited.
These data are gathered electronically and, as presented, have not undergone any form of quality control. These data are not guaranteed to be valid or correct.
Go to home page.
Go to station list.
Go to home page.

Upstream stations:

Downstream station:
Previous Day
Next Day
Current Day
    
SHEF ID:       DVDO2     Red River at US 183 Bridge
STATION TYPE:  
Regulating: Stage =     9.00, Flow =    10940

               PRECIP     STAGE  RIV-FLOW   VOLTAGE
                   in        ft       cfs      volt
              Ccp-Rev   Ccp-Rev   Ccp-Rev   Ccp-Rev
(US/Central)
05/22 00:00      0.00      8.15      7007     12.90
05/22 01:00      0.00      8.23      7296     12.90
05/22 02:00      0.00      8.11      6865     12.90
05/22 03:00      0.00      8.06      6691     12.90
05/22 04:00      0.00      7.99      6452     12.90
05/22 05:00      0.00      7.97      6385     12.90
05/22 06:00      0.00      7.94      6285     12.80
05/22 07:00      0.00      7.90      6153     12.90
05/22 08:00      0.00      7.92      6219     13.90
05/22 09:00      0.00      7.90      6153     14.20
05/22 10:00      0.00      7.87      6055     14.20
05/22 11:00      0.00      7.89      6120     14.10
05/22 12:00      0.00      7.93      6252     14.00
05/22 13:00      0.00      7.92      6219     13.90
05/22 14:00      0.00      7.91      6186     14.00
05/22 15:00      0.00      8.06      6691     13.90
05/22 16:00      0.00      8.10      6830     13.90
05/22 17:00      0.00      8.18      7114     13.90
05/22 18:00      0.00      8.21      7223     13.90
05/22 19:00      0.00      8.31      7591     13.90
05/22 20:00      0.00      8.37      7819     13.70
05/22 21:00      0.00      8.36      7780     13.00
05/22 22:00      0.00      8.41      7972     13.00
05/22 23:00      0.00      8.51      8365     13.00